createdAt,value
2017-01-25T00:00:38.465Z,1026.35
2017-01-25T00:01:48.379Z,1026.38
2017-01-25T00:02:58.937Z,1026.36
2017-01-25T00:04:09.254Z,1026.4
2017-01-25T00:05:20.100Z,1026.37
2017-01-25T00:06:30.798Z,1026.38
2017-01-25T00:07:40.740Z,1026.38
2017-01-25T00:08:51.751Z,1026.38
2017-01-25T00:10:02.455Z,1026.34
2017-01-25T00:11:13.170Z,1026.33
2017-01-25T00:12:23.482Z,1026.34
2017-01-25T00:13:34.188Z,1026.32
2017-01-25T00:14:45.148Z,1026.31
2017-01-25T00:15:55.463Z,1026.33
2017-01-25T00:17:06.170Z,1026.36
2017-01-25T00:18:16.889Z,1026.34
2017-01-25T00:19:27.201Z,1026.37
2017-01-25T00:20:38.171Z,1026.39
2017-01-25T00:21:48.486Z,1026.43
2017-01-25T00:22:58.801Z,1026.41
2017-01-25T00:24:09.496Z,1026.45
2017-01-25T00:25:20.203Z,1026.51
2017-01-25T00:26:31.182Z,1026.49
2017-01-25T00:27:41.893Z,1026.49
2017-01-25T00:28:52.215Z,1026.46
2017-01-25T00:30:02.532Z,1026.47
2017-01-25T00:31:13.253Z,1026.48
2017-01-25T00:32:23.418Z,1026.46
2017-01-25T00:33:33.732Z,1026.48
2017-01-25T00:34:44.052Z,1026.43
2017-01-25T00:35:54.375Z,1026.45
2017-01-25T00:37:04.685Z,1026.45
2017-01-25T00:38:15.256Z,1026.47
2017-01-25T00:39:25.600Z,1026.4
2017-01-25T00:40:35.911Z,1026.39
2017-01-25T00:41:45.831Z,1026.35
2017-01-25T00:42:56.142Z,1026.35
2017-01-25T00:44:06.349Z,1026.38
2017-01-25T00:45:16.259Z,1026.38
2017-01-25T00:46:26.581Z,1026.37
2017-01-25T00:47:36.893Z,1026.38
2017-01-25T00:48:47.197Z,1026.41
2017-01-25T00:49:58.155Z,1026.35
2017-01-25T00:51:08.132Z,1026.35
2017-01-25T00:52:18.832Z,1026.32
2017-01-25T00:53:28.775Z,1026.3
2017-01-25T00:54:39.478Z,1026.33
2017-01-25T00:55:50.052Z,1026.36
2017-01-25T00:57:00.768Z,1026.36
2017-01-25T00:58:11.489Z,1026.34
2017-01-25T00:59:22.226Z,1026.32
2017-01-25T01:00:32.542Z,1026.31
2017-01-25T01:01:43.483Z,1026.35
2017-01-25T01:02:54.183Z,1026.35
2017-01-25T01:04:04.891Z,1026.36
2017-01-25T01:05:15.649Z,1026.37
2017-01-25T01:06:26.350Z,1026.38
2017-01-25T01:07:37.306Z,1026.38
2017-01-25T01:08:47.604Z,1026.36
2017-01-25T01:09:57.918Z,1026.34
2017-01-25T01:11:07.841Z,1026.33
2017-01-25T01:12:18.155Z,1026.38
2017-01-25T01:13:28.723Z,1026.36
2017-01-25T01:14:38.641Z,1026.39
2017-01-25T01:15:48.958Z,1026.4
2017-01-25T01:16:59.275Z,1026.39
2017-01-25T01:18:10.036Z,1026.4
2017-01-25T01:19:20.631Z,1026.41
2017-01-25T01:20:30.964Z,1026.46
2017-01-25T01:21:41.671Z,1026.43
2017-01-25T01:22:52.372Z,1026.44
2017-01-25T01:24:01.897Z,1026.44
2017-01-25T01:25:12.458Z,1026.46
2017-01-25T01:26:23.166Z,1026.46
2017-01-25T01:27:33.870Z,1026.45
2017-01-25T01:28:43.786Z,1026.42
2017-01-25T01:29:53.700Z,1026.41
2017-01-25T01:31:04.258Z,1026.48
2017-01-25T01:32:13.798Z,1026.46
2017-01-25T01:33:24.112Z,1026.52
2017-01-25T01:34:34.029Z,1026.48
2017-01-25T01:35:44.343Z,1026.54
2017-01-25T01:36:54.103Z,1026.56
2017-01-25T01:38:04.817Z,1026.57
2017-01-25T01:39:14.729Z,1026.51
2017-01-25T01:40:26.000Z,1026.49
2017-01-25T01:41:36.317Z,1026.5
2017-01-25T01:42:46.535Z,1026.43
2017-01-25T01:43:56.448Z,1026.44
2017-01-25T01:45:06.799Z,1026.41
2017-01-25T01:46:16.740Z,1026.45
2017-01-25T01:47:27.436Z,1026.42
2017-01-25T01:48:37.994Z,1026.45
2017-01-25T01:49:48.301Z,1026.42
2017-01-25T01:50:59.030Z,1026.39
2017-01-25T01:52:09.536Z,1026.42
2017-01-25T01:53:19.851Z,1026.42
2017-01-25T01:54:30.801Z,1026.38
2017-01-25T01:55:41.120Z,1026.43
2017-01-25T01:56:51.825Z,1026.42
2017-01-25T01:58:02.139Z,1026.43
2017-01-25T01:59:12.445Z,1026.43
2017-01-25T02:00:22.654Z,1026.39
2017-01-25T02:01:32.981Z,1026.47
2017-01-25T02:02:43.287Z,1026.51
2017-01-25T02:03:53.196Z,1026.46
2017-01-25T02:05:02.705Z,1026.47
2017-01-25T02:06:12.487Z,1026.47
2017-01-25T02:07:22.801Z,1026.5
2017-01-25T02:08:32.735Z,1026.49
2017-01-25T02:09:43.050Z,1026.51
2017-01-25T02:10:52.980Z,1026.52
2017-01-25T02:12:03.982Z,1026.5
2017-01-25T02:13:14.301Z,1026.45
2017-01-25T02:14:24.612Z,1026.45
2017-01-25T02:15:35.302Z,1026.49
2017-01-25T02:16:44.813Z,1026.48
2017-01-25T02:17:55.774Z,1026.53
2017-01-25T02:19:06.488Z,1026.55
2017-01-25T02:20:16.397Z,1026.59
2017-01-25T02:21:27.095Z,1026.55
2017-01-25T02:22:37.011Z,1026.59
2017-01-25T02:23:47.226Z,1026.56
2017-01-25T02:24:57.140Z,1026.54
2017-01-25T02:26:07.853Z,1026.55
2017-01-25T02:27:18.555Z,1026.5
2017-01-25T02:28:28.117Z,1026.46
2017-01-25T02:29:38.757Z,1026.47
2017-01-25T02:30:49.463Z,1026.39
2017-01-25T02:31:59.773Z,1026.38
2017-01-25T02:33:10.486Z,1026.38
2017-01-25T02:34:20.789Z,1026.37
2017-01-25T02:35:31.342Z,1026.38
2017-01-25T02:36:41.655Z,1026.35
2017-01-25T02:37:52.410Z,1026.3
2017-01-25T02:39:02.724Z,1026.33
2017-01-25T02:40:13.028Z,1026.35
2017-01-25T02:41:23.584Z,1026.32
2017-01-25T02:42:34.337Z,1026.27
2017-01-25T02:43:45.043Z,1026.33
2017-01-25T02:44:54.560Z,1026.34
2017-01-25T02:46:04.870Z,1026.33
2017-01-25T02:47:15.031Z,1026.34
2017-01-25T02:48:25.343Z,1026.29
2017-01-25T02:49:36.042Z,1026.26
2017-01-25T02:50:46.345Z,1026.28
2017-01-25T02:51:56.641Z,1026.32
2017-01-25T02:53:07.210Z,1026.38
2017-01-25T02:54:17.910Z,1026.36
2017-01-25T02:55:28.857Z,1026.32
2017-01-25T02:56:39.172Z,1026.28
2017-01-25T02:57:49.488Z,1026.31
2017-01-25T02:59:00.448Z,1026.33
2017-01-25T03:00:11.149Z,1026.33
2017-01-25T03:01:21.463Z,1026.31
2017-01-25T03:02:31.373Z,1026.32
2017-01-25T03:03:42.077Z,1026.35
2017-01-25T03:04:52.683Z,1026.4
2017-01-25T03:06:03.001Z,1026.43
2017-01-25T03:07:13.337Z,1026.42
2017-01-25T03:08:24.047Z,1026.37
2017-01-25T03:09:33.953Z,1026.39
2017-01-25T03:10:44.519Z,1026.33
2017-01-25T03:11:54.032Z,1026.35
2017-01-25T03:13:04.343Z,1026.34
2017-01-25T03:14:15.073Z,1026.35
2017-01-25T03:15:25.377Z,1026.39
2017-01-25T03:16:35.583Z,1026.42
2017-01-25T03:17:45.894Z,1026.47
2017-01-25T03:18:56.602Z,1026.46
2017-01-25T03:20:06.516Z,1026.43
2017-01-25T03:21:16.835Z,1026.46
2017-01-25T03:22:27.845Z,1026.45
2017-01-25T03:23:38.551Z,1026.47
2017-01-25T03:24:48.458Z,1026.48
2017-01-25T03:25:58.380Z,1026.47
2017-01-25T03:27:09.093Z,1026.49
2017-01-25T03:28:20.045Z,1026.54
2017-01-25T03:29:30.363Z,1026.54
2017-01-25T03:30:41.523Z,1026.57
2017-01-25T03:31:51.431Z,1026.58
2017-01-25T03:33:02.132Z,1026.59
2017-01-25T03:34:12.717Z,1026.6
2017-01-25T03:35:23.425Z,1026.59
2017-01-25T03:36:34.157Z,1026.6
2017-01-25T03:37:44.855Z,1026.61
2017-01-25T03:38:55.165Z,1026.59
2017-01-25T03:40:05.740Z,1026.57
2017-01-25T03:41:15.655Z,1026.58
2017-01-25T03:42:25.972Z,1026.59
2017-01-25T03:43:36.678Z,1026.59
2017-01-25T03:44:47.385Z,1026.61
2017-01-25T03:45:57.660Z,1026.64
2017-01-25T03:47:07.973Z,1026.65
2017-01-25T03:48:18.336Z,1026.65
2017-01-25T03:49:28.651Z,1026.65
2017-01-25T03:50:38.967Z,1026.67
2017-01-25T03:51:49.584Z,1026.71
2017-01-25T03:53:00.285Z,1026.74
2017-01-25T03:54:10.594Z,1026.75
2017-01-25T03:55:20.506Z,1026.71
2017-01-25T03:56:31.242Z,1026.74
2017-01-25T03:57:42.201Z,1026.71
2017-01-25T03:58:52.109Z,1026.71
2017-01-25T04:00:02.411Z,1026.71
2017-01-25T04:01:11.930Z,1026.76
2017-01-25T04:02:22.653Z,1026.75
2017-01-25T04:03:33.232Z,1026.75
2017-01-25T04:04:43.548Z,1026.72
2017-01-25T04:05:53.466Z,1026.7
2017-01-25T04:07:04.157Z,1026.75
2017-01-25T04:08:14.870Z,1026.74
2017-01-25T04:09:25.462Z,1026.72
2017-01-25T04:10:35.573Z,1026.75
2017-01-25T04:11:46.268Z,1026.76
2017-01-25T04:12:55.395Z,1026.74
2017-01-25T04:14:06.106Z,1026.77
2017-01-25T04:15:17.107Z,1026.78
2017-01-25T04:16:27.419Z,1026.77
2017-01-25T04:17:37.344Z,1026.76
2017-01-25T04:18:47.654Z,1026.75
2017-01-25T04:19:57.955Z,1026.74
2017-01-25T04:21:08.908Z,1026.74
2017-01-25T04:22:18.829Z,1026.76
2017-01-25T04:23:29.370Z,1026.76
2017-01-25T04:24:39.670Z,1026.8
2017-01-25T04:25:49.590Z,1026.84
2017-01-25T04:27:00.195Z,1026.91
2017-01-25T04:28:10.505Z,1026.89
2017-01-25T04:29:20.816Z,1026.89
2017-01-25T04:30:31.143Z,1026.86
2017-01-25T04:31:41.840Z,1026.81
2017-01-25T04:32:52.784Z,1026.85
2017-01-25T04:34:03.493Z,1026.87
2017-01-25T04:35:13.801Z,1026.88
2017-01-25T04:36:23.716Z,1026.86
2017-01-25T04:37:34.422Z,1026.8
2017-01-25T04:38:44.640Z,1026.85
2017-01-25T04:39:55.341Z,1026.89
2017-01-25T04:41:06.055Z,1026.89
2017-01-25T04:42:16.403Z,1026.94
2017-01-25T04:43:26.316Z,1026.93
2017-01-25T04:44:36.886Z,1026.91
2017-01-25T04:45:46.794Z,1026.95
2017-01-25T04:46:57.101Z,1026.92
2017-01-25T04:48:07.411Z,1026.94
2017-01-25T04:49:17.332Z,1026.95
2017-01-25T04:50:28.307Z,1026.93
2017-01-25T04:51:37.826Z,1026.93
2017-01-25T04:52:47.334Z,1026.89
2017-01-25T04:53:57.680Z,1026.9
2017-01-25T04:55:07.991Z,1026.89
2017-01-25T04:56:18.960Z,1026.87
2017-01-25T04:57:29.258Z,1026.87
2017-01-25T04:58:39.566Z,1026.89
2017-01-25T04:59:50.322Z,1026.9
2017-01-25T05:01:00.230Z,1026.89
2017-01-25T05:02:10.043Z,1026.9
2017-01-25T05:03:20.358Z,1026.88
2017-01-25T05:04:29.483Z,1026.88
2017-01-25T05:05:39.789Z,1026.89
2017-01-25T05:06:50.493Z,1026.94
2017-01-25T05:08:00.262Z,1026.95
2017-01-25T05:09:10.167Z,1026.97
2017-01-25T05:10:20.485Z,1026.96
2017-01-25T05:11:30.793Z,1027
2017-01-25T05:12:41.502Z,1026.96
2017-01-25T05:13:52.128Z,1027
2017-01-25T05:15:02.087Z,1026.97
2017-01-25T05:16:12.007Z,1026.99
2017-01-25T05:17:21.923Z,1026.95
2017-01-25T05:18:32.263Z,1026.95
2017-01-25T05:19:43.244Z,1027.01
2017-01-25T05:20:53.562Z,1026.98
2017-01-25T05:22:04.267Z,1026.93
2017-01-25T05:23:13.785Z,1026.95
2017-01-25T05:24:24.506Z,1026.95
2017-01-25T05:25:33.897Z,1026.95
2017-01-25T05:26:44.208Z,1026.96
2017-01-25T05:27:53.724Z,1026.96
2017-01-25T05:29:04.022Z,1026.92
2017-01-25T05:30:13.947Z,1026.97
2017-01-25T05:31:23.717Z,1026.95
2017-01-25T05:32:33.653Z,1026.96
2017-01-25T05:33:44.355Z,1026.9
2017-01-25T05:34:54.277Z,1027
2017-01-25T05:36:04.991Z,1026.94
2017-01-25T05:37:15.179Z,1026.95
2017-01-25T05:38:25.496Z,1026.98
2017-01-25T05:39:35.419Z,1026.97
2017-01-25T05:40:45.723Z,1027
2017-01-25T05:41:56.031Z,1026.97
2017-01-25T05:43:06.190Z,1026.95
2017-01-25T05:44:16.906Z,1027
2017-01-25T05:45:27.214Z,1026.92
2017-01-25T05:46:37.531Z,1026.96
2017-01-25T05:47:48.231Z,1026.95
2017-01-25T05:48:58.787Z,1026.99
2017-01-25T05:50:08.712Z,1026.96
2017-01-25T05:51:19.028Z,1026.93
2017-01-25T05:52:28.939Z,1026.93
2017-01-25T05:53:39.243Z,1026.97
2017-01-25T05:54:49.864Z,1026.99
2017-01-25T05:56:00.181Z,1026.91
2017-01-25T05:57:10.532Z,1026.95
2017-01-25T05:58:21.224Z,1026.91
2017-01-25T05:59:31.535Z,1026.94
2017-01-25T06:00:42.155Z,1027
2017-01-25T06:01:52.079Z,1027.02
2017-01-25T06:03:01.598Z,1027.01
2017-01-25T06:04:11.508Z,1027.07
2017-01-25T06:05:21.422Z,1027.08
2017-01-25T06:06:31.976Z,1027.11
2017-01-25T06:07:42.285Z,1027.08
2017-01-25T06:08:52.991Z,1027.12
2017-01-25T06:10:03.307Z,1027.15
2017-01-25T06:11:13.639Z,1027.11
2017-01-25T06:12:23.798Z,1027.12
2017-01-25T06:13:34.537Z,1027.14
2017-01-25T06:14:43.664Z,1027.08
2017-01-25T06:15:53.582Z,1027.13
2017-01-25T06:17:04.289Z,1027.11
2017-01-25T06:18:15.252Z,1027.1
2017-01-25T06:19:25.158Z,1027.12
2017-01-25T06:20:35.856Z,1027.14
2017-01-25T06:21:46.584Z,1027.18
2017-01-25T06:22:57.294Z,1027.16
2017-01-25T06:24:08.251Z,1027.22
2017-01-25T06:25:17.806Z,1027.25
2017-01-25T06:26:28.162Z,1027.2
2017-01-25T06:27:38.491Z,1027.21
2017-01-25T06:28:49.204Z,1027.24
2017-01-25T06:29:59.370Z,1027.19
2017-01-25T06:31:09.703Z,1027.2
2017-01-25T06:32:20.457Z,1027.22
2017-01-25T06:33:31.159Z,1027.2
2017-01-25T06:34:41.873Z,1027.19
2017-01-25T06:35:51.640Z,1027.18
2017-01-25T06:37:01.562Z,1027.19
2017-01-25T06:38:12.253Z,1027.16
2017-01-25T06:39:22.959Z,1027.25
2017-01-25T06:40:33.275Z,1027.18
2017-01-25T06:41:43.500Z,1027.18
2017-01-25T06:42:54.243Z,1027.24
2017-01-25T06:44:04.971Z,1027.26
2017-01-25T06:45:15.284Z,1027.2
2017-01-25T06:46:25.594Z,1027.18
2017-01-25T06:47:36.220Z,1027.16
2017-01-25T06:48:46.527Z,1027.18
2017-01-25T06:49:56.820Z,1027.15
2017-01-25T06:51:07.153Z,1027.14
2017-01-25T06:52:17.469Z,1027.17
2017-01-25T06:53:27.313Z,1027.15
2017-01-25T06:54:38.039Z,1027.13
2017-01-25T06:55:47.956Z,1027.18
2017-01-25T06:56:58.684Z,1027.22
2017-01-25T06:58:09.425Z,1027.29
2017-01-25T06:59:20.051Z,1027.21
2017-01-25T07:00:30.769Z,1027.27
2017-01-25T07:01:41.484Z,1027.27
2017-01-25T07:02:51.796Z,1027.23
2017-01-25T07:04:02.495Z,1027.26
2017-01-25T07:05:12.718Z,1027.27
2017-01-25T07:06:23.037Z,1027.22
2017-01-25T07:07:33.745Z,1027.3
2017-01-25T07:08:44.042Z,1027.3
2017-01-25T07:09:54.356Z,1027.32
2017-01-25T07:11:04.593Z,1027.32
2017-01-25T07:12:14.514Z,1027.36
2017-01-25T07:13:24.057Z,1027.35
2017-01-25T07:14:34.385Z,1027.35
2017-01-25T07:15:44.325Z,1027.38
2017-01-25T07:16:54.542Z,1027.4
2017-01-25T07:18:05.290Z,1027.42
2017-01-25T07:19:15.643Z,1027.37
2017-01-25T07:20:26.383Z,1027.4
2017-01-25T07:21:37.162Z,1027.44
2017-01-25T07:22:48.184Z,1027.53
2017-01-25T07:23:58.209Z,1027.49
2017-01-25T07:25:08.553Z,1027.48
2017-01-25T07:26:19.316Z,1027.46
2017-01-25T07:27:30.097Z,1027.44
2017-01-25T07:28:40.673Z,1027.48
2017-01-25T07:29:50.591Z,1027.48
2017-01-25T07:31:00.912Z,1027.49
2017-01-25T07:32:11.266Z,1027.48
2017-01-25T07:33:20.814Z,1027.47
2017-01-25T07:34:31.396Z,1027.47
2017-01-25T07:35:41.755Z,1027.5
2017-01-25T07:36:52.465Z,1027.52
2017-01-25T07:38:03.005Z,1027.53
2017-01-25T07:39:13.739Z,1027.49
2017-01-25T07:40:24.703Z,1027.53
2017-01-25T07:41:35.022Z,1027.48
2017-01-25T07:42:45.752Z,1027.48
2017-01-25T07:43:56.187Z,1027.52
2017-01-25T07:45:06.612Z,1027.5
2017-01-25T07:46:17.685Z,1027.56
2017-01-25T07:47:28.437Z,1027.54
2017-01-25T07:48:39.205Z,1027.53
2017-01-25T07:49:49.208Z,1027.52
2017-01-25T07:50:59.943Z,1027.56
2017-01-25T07:52:10.925Z,1027.55
2017-01-25T07:53:21.686Z,1027.5
2017-01-25T07:54:31.624Z,1027.52
2017-01-25T07:55:41.958Z,1027.54
2017-01-25T07:56:51.896Z,1027.55
2017-01-25T07:58:02.127Z,1027.58
2017-01-25T07:59:12.879Z,1027.56
2017-01-25T08:00:23.683Z,1027.54
2017-01-25T08:01:34.397Z,1027.56
2017-01-25T08:02:44.761Z,1027.53
2017-01-25T08:03:55.397Z,1027.54
2017-01-25T08:05:05.749Z,1027.58
2017-01-25T08:06:15.663Z,1027.6
2017-01-25T08:07:26.376Z,1027.63
2017-01-25T08:08:37.145Z,1027.67
2017-01-25T08:09:48.204Z,1027.64
2017-01-25T08:10:58.143Z,1027.62
2017-01-25T08:12:08.474Z,1027.64
2017-01-25T08:13:19.214Z,1027.66
2017-01-25T08:14:29.152Z,1027.67
2017-01-25T08:15:39.729Z,1027.64
2017-01-25T08:16:50.075Z,1027.68
2017-01-25T08:18:00.830Z,1027.71
2017-01-25T08:19:10.764Z,1027.71
2017-01-25T08:20:21.541Z,1027.71
2017-01-25T08:21:32.167Z,1027.7
2017-01-25T08:22:42.100Z,1027.71
2017-01-25T08:23:52.024Z,1027.73
2017-01-25T08:25:01.578Z,1027.73
2017-01-25T08:26:12.000Z,1027.75
2017-01-25T08:27:21.776Z,1027.75
2017-01-25T08:28:32.497Z,1027.76
2017-01-25T08:29:43.297Z,1027.74
2017-01-25T08:30:54.034Z,1027.78
2017-01-25T08:32:04.756Z,1027.79
2017-01-25T08:33:14.564Z,1027.81
2017-01-25T08:34:25.315Z,1027.84
2017-01-25T08:35:36.167Z,1027.85
2017-01-25T08:36:46.582Z,1027.88
2017-01-25T08:37:57.302Z,1027.85
2017-01-25T08:39:07.490Z,1027.83
2017-01-25T08:40:17.420Z,1027.81
2017-01-25T08:41:28.164Z,1027.87
2017-01-25T08:42:38.876Z,1027.86
2017-01-25T08:43:49.196Z,1027.84
2017-01-25T08:45:00.217Z,1027.84
2017-01-25T08:46:10.547Z,1027.87
2017-01-25T08:47:21.254Z,1027.82
2017-01-25T08:48:31.581Z,1027.87
2017-01-25T08:49:41.911Z,1027.81
2017-01-25T08:50:52.571Z,1027.87
2017-01-25T08:52:03.319Z,1027.85
2017-01-25T08:53:13.674Z,1027.89
2017-01-25T08:54:24.012Z,1027.92
2017-01-25T08:55:33.945Z,1027.93
2017-01-25T08:56:44.575Z,1027.89
2017-01-25T08:57:54.931Z,1027.89
2017-01-25T08:59:05.232Z,1027.95
2017-01-25T09:00:15.157Z,1027.91
2017-01-25T09:01:25.104Z,1027.95
2017-01-25T09:02:35.034Z,1027.95
2017-01-25T09:03:45.367Z,1027.96
2017-01-25T09:04:56.102Z,1027.91
2017-01-25T09:06:06.057Z,1027.99
2017-01-25T09:07:16.688Z,1027.97
2017-01-25T09:08:27.018Z,1027.99
2017-01-25T09:09:37.338Z,1028
2017-01-25T09:10:47.699Z,1028.02
2017-01-25T09:11:57.613Z,1027.95
2017-01-25T09:13:07.798Z,1027.94
2017-01-25T09:14:18.128Z,1027.99
2017-01-25T09:15:28.838Z,1027.99
2017-01-25T09:16:39.565Z,1028.04
2017-01-25T09:17:49.491Z,1028.04
2017-01-25T09:18:59.878Z,1028.05
2017-01-25T09:20:10.215Z,1028.05
2017-01-25T09:21:20.947Z,1027.98
2017-01-25T09:22:31.304Z,1028.04
2017-01-25T09:23:41.872Z,1028.03
2017-01-25T09:24:52.185Z,1028.03
2017-01-25T09:26:02.112Z,1028.04
2017-01-25T09:27:12.492Z,1028.1
2017-01-25T09:28:23.203Z,1028.11
2017-01-25T09:29:33.396Z,1028.14
2017-01-25T09:30:43.702Z,1028.13
2017-01-25T09:31:53.629Z,1028.12
2017-01-25T09:33:04.354Z,1028.14
2017-01-25T09:34:14.691Z,1028.18
2017-01-25T09:35:24.875Z,1028.16
2017-01-25T09:36:35.209Z,1028.15
2017-01-25T09:37:44.756Z,1028.16
2017-01-25T09:38:54.677Z,1028.19
2017-01-25T09:40:05.410Z,1028.22
2017-01-25T09:41:15.975Z,1028.18
2017-01-25T09:42:26.314Z,1028.24
2017-01-25T09:43:36.643Z,1028.2
2017-01-25T09:44:47.434Z,1028.25
2017-01-25T09:45:57.902Z,1028.24
2017-01-25T09:47:08.074Z,1028.22
2017-01-25T09:48:18.004Z,1028.19
2017-01-25T09:49:28.718Z,1028.22
2017-01-25T09:50:38.251Z,1028.2
2017-01-25T09:51:48.959Z,1028.18
2017-01-25T09:52:59.581Z,1028.21
2017-01-25T09:54:09.904Z,1028.18
2017-01-25T09:55:19.827Z,1028.2
2017-01-25T09:56:30.381Z,1028.21
2017-01-25T09:57:40.718Z,1028.2
2017-01-25T09:58:51.036Z,1028.18
2017-01-25T10:00:00.984Z,1028.14
2017-01-25T10:01:11.325Z,1028.18
2017-01-25T10:02:21.274Z,1028.18
2017-01-25T10:03:31.207Z,1028.17
2017-01-25T10:04:41.808Z,1028.2
2017-01-25T10:05:52.119Z,1028.21
2017-01-25T10:07:02.449Z,1028.2
2017-01-25T10:08:12.778Z,1028.2
2017-01-25T10:09:23.412Z,1028.21
2017-01-25T10:10:32.965Z,1028.15
2017-01-25T10:11:43.309Z,1028.16
2017-01-25T10:12:53.222Z,1028.1
2017-01-25T10:14:03.154Z,1028.1
2017-01-25T10:15:14.130Z,1028.12
2017-01-25T10:16:24.468Z,1028.16
2017-01-25T10:17:34.779Z,1028.15
2017-01-25T10:18:45.501Z,1028.15
2017-01-25T10:19:55.041Z,1028.12
2017-01-25T10:21:05.271Z,1028.11
2017-01-25T10:22:15.987Z,1028.1
2017-01-25T10:23:25.917Z,1028.17
2017-01-25T10:24:36.242Z,1028.21
2017-01-25T10:25:46.973Z,1028.12
2017-01-25T10:26:57.200Z,1028.1
2017-01-25T10:28:07.518Z,1028.09
2017-01-25T10:29:17.843Z,1028.09
2017-01-25T10:30:28.165Z,1028.1
2017-01-25T10:31:38.474Z,1028.13
2017-01-25T10:32:49.410Z,1028.07
2017-01-25T10:33:59.722Z,1028.04
2017-01-25T10:35:10.423Z,1028.04
2017-01-25T10:36:21.134Z,1028.03
2017-01-25T10:37:31.060Z,1028.01
2017-01-25T10:38:41.271Z,1028.04
2017-01-25T10:39:52.206Z,1028
2017-01-25T10:41:02.526Z,1028.04
2017-01-25T10:42:12.481Z,1028.06
2017-01-25T10:43:22.798Z,1028.03
2017-01-25T10:44:32.983Z,1028.02
2017-01-25T10:45:42.912Z,1028.01
2017-01-25T10:46:53.241Z,1027.98
2017-01-25T10:48:03.553Z,1027.97
2017-01-25T10:49:14.304Z,1027.97
2017-01-25T10:50:24.147Z,1027.94
2017-01-25T10:51:34.871Z,1027.98
2017-01-25T10:52:45.578Z,1027.97
2017-01-25T10:53:55.103Z,1027.97
2017-01-25T10:55:05.820Z,1027.95
2017-01-25T10:56:16.777Z,1027.92
2017-01-25T10:57:27.497Z,1027.91
2017-01-25T10:58:38.233Z,1027.92
2017-01-25T10:59:48.994Z,1027.94
2017-01-25T11:00:59.939Z,1027.9
2017-01-25T11:02:10.118Z,1027.92
2017-01-25T11:03:20.861Z,1027.89
2017-01-25T11:04:31.188Z,1027.86
2017-01-25T11:05:41.506Z,1027.88
2017-01-25T11:06:51.827Z,1027.83
2017-01-25T11:08:02.406Z,1027.89
2017-01-25T11:09:13.117Z,1027.84
2017-01-25T11:10:23.426Z,1027.83
2017-01-25T11:11:33.741Z,1027.76
2017-01-25T11:12:44.474Z,1027.8
2017-01-25T11:13:55.430Z,1027.77
2017-01-25T11:15:06.140Z,1027.8
2017-01-25T11:16:16.457Z,1027.81
2017-01-25T11:17:26.002Z,1027.81
2017-01-25T11:18:36.707Z,1027.79
2017-01-25T11:19:47.272Z,1027.78
2017-01-25T11:20:57.996Z,1027.75
2017-01-25T11:22:08.304Z,1027.71
2017-01-25T11:23:18.221Z,1027.74
2017-01-25T11:24:28.563Z,1027.74
2017-01-25T11:25:39.136Z,1027.72
2017-01-25T11:26:49.457Z,1027.76
2017-01-25T11:28:00.182Z,1027.78
2017-01-25T11:29:10.121Z,1027.8
2017-01-25T11:30:20.843Z,1027.75
2017-01-25T11:31:31.005Z,1027.77
2017-01-25T11:32:41.333Z,1027.79
2017-01-25T11:33:51.657Z,1027.77
2017-01-25T11:35:02.361Z,1027.74
2017-01-25T11:36:12.723Z,1027.74
2017-01-25T11:37:22.491Z,1027.72
2017-01-25T11:38:33.199Z,1027.72
2017-01-25T11:39:43.533Z,1027.7
2017-01-25T11:40:53.845Z,1027.69
2017-01-25T11:42:04.553Z,1027.7
2017-01-25T11:43:15.535Z,1027.7
2017-01-25T11:44:25.471Z,1027.67
2017-01-25T11:45:35.403Z,1027.69
2017-01-25T11:46:45.719Z,1027.66
2017-01-25T11:47:56.492Z,1027.63
2017-01-25T11:49:07.547Z,1027.68
2017-01-25T11:50:17.522Z,1027.66
2017-01-25T11:51:28.287Z,1027.68
2017-01-25T11:52:38.652Z,1027.69
2017-01-25T11:53:48.613Z,1027.7
2017-01-25T11:54:58.795Z,1027.66
2017-01-25T11:56:09.518Z,1027.63
2017-01-25T11:57:20.245Z,1027.61
2017-01-25T11:58:30.573Z,1027.61
2017-01-25T11:59:40.505Z,1027.6
2017-01-25T12:00:51.093Z,1027.65
2017-01-25T12:02:01.029Z,1027.65
2017-01-25T12:03:11.350Z,1027.61
2017-01-25T12:04:21.663Z,1027.54
2017-01-25T12:05:31.985Z,1027.6
2017-01-25T12:06:42.573Z,1027.55
2017-01-25T12:07:52.505Z,1027.53
2017-01-25T12:09:03.228Z,1027.59
2017-01-25T12:10:13.558Z,1027.57
2017-01-25T12:11:23.493Z,1027.57
2017-01-25T12:12:34.117Z,1027.55
2017-01-25T12:13:44.448Z,1027.56
2017-01-25T12:14:55.180Z,1027.57
2017-01-25T12:16:05.900Z,1027.57
2017-01-25T12:17:16.629Z,1027.57
2017-01-25T12:18:26.837Z,1027.53
2017-01-25T12:19:37.163Z,1027.55
2017-01-25T12:20:47.899Z,1027.51
2017-01-25T12:21:57.843Z,1027.46
2017-01-25T12:23:08.214Z,1027.45
2017-01-25T12:24:18.814Z,1027.43
2017-01-25T12:25:29.572Z,1027.43
2017-01-25T12:26:39.113Z,1027.43
2017-01-25T12:27:49.838Z,1027.42
2017-01-25T12:29:00.394Z,1027.41
2017-01-25T12:30:11.397Z,1027.41
2017-01-25T12:31:21.742Z,1027.38
2017-01-25T12:32:31.684Z,1027.43
2017-01-25T12:33:42.395Z,1027.46
2017-01-25T12:34:52.352Z,1027.41
2017-01-25T12:36:02.988Z,1027.37
2017-01-25T12:37:13.343Z,1027.39
2017-01-25T12:38:23.661Z,1027.46
2017-01-25T12:39:33.982Z,1027.39
2017-01-25T12:40:44.294Z,1027.42
2017-01-25T12:41:54.868Z,1027.44
2017-01-25T12:43:05.591Z,1027.44
2017-01-25T12:44:15.516Z,1027.42
2017-01-25T12:45:25.853Z,1027.39
2017-01-25T12:46:36.179Z,1027.37
2017-01-25T12:47:47.199Z,1027.37
2017-01-25T12:48:57.523Z,1027.33
2017-01-25T12:50:08.247Z,1027.33
2017-01-25T12:51:18.991Z,1027.34
2017-01-25T12:52:29.312Z,1027.35
2017-01-25T12:53:39.526Z,1027.33
2017-01-25T12:54:49.888Z,1027.37
2017-01-25T12:55:59.801Z,1027.37
2017-01-25T12:57:10.112Z,1027.36
2017-01-25T12:58:20.438Z,1027.34
2017-01-25T12:59:31.453Z,1027.37
2017-01-25T13:00:41.769Z,1027.33
2017-01-25T13:01:52.079Z,1027.34
2017-01-25T13:03:02.031Z,1027.35
2017-01-25T13:04:12.381Z,1027.33
2017-01-25T13:05:22.993Z,1027.32
2017-01-25T13:06:33.711Z,1027.31
2017-01-25T13:07:44.437Z,1027.27
2017-01-25T13:08:55.147Z,1027.28
2017-01-25T13:10:05.079Z,1027.24
2017-01-25T13:11:15.686Z,1027.27
2017-01-25T13:12:25.987Z,1027.25
2017-01-25T13:13:36.306Z,1027.2
2017-01-25T13:14:47.016Z,1027.24
2017-01-25T13:15:57.766Z,1027.26
2017-01-25T13:17:08.774Z,1027.24
2017-01-25T13:18:19.492Z,1027.24
2017-01-25T13:19:30.224Z,1027.25
2017-01-25T13:20:40.966Z,1027.24
2017-01-25T13:21:51.288Z,1027.24
2017-01-25T13:23:02.235Z,1027.23
2017-01-25T13:24:12.999Z,1027.22
2017-01-25T13:25:23.313Z,1027.23
2017-01-25T13:26:34.055Z,1027.21
2017-01-25T13:27:44.378Z,1027.22
2017-01-25T13:28:54.952Z,1027.2
2017-01-25T13:30:05.671Z,1027.2
2017-01-25T13:31:15.588Z,1027.23
2017-01-25T13:32:25.918Z,1027.23
2017-01-25T13:33:35.851Z,1027.26
2017-01-25T13:34:45.623Z,1027.23
2017-01-25T13:35:55.946Z,1027.26
2017-01-25T13:37:06.671Z,1027.26
2017-01-25T13:38:16.625Z,1027.3
2017-01-25T13:39:26.930Z,1027.36
2017-01-25T13:40:37.644Z,1027.36
2017-01-25T13:41:48.366Z,1027.37
2017-01-25T13:42:58.693Z,1027.34
2017-01-25T13:44:08.634Z,1027.33
2017-01-25T13:45:19.064Z,1027.33
2017-01-25T13:46:29.701Z,1027.35
2017-01-25T13:47:40.015Z,1027.37
2017-01-25T13:48:50.735Z,1027.41
2017-01-25T13:50:00.710Z,1027.47
2017-01-25T13:51:10.258Z,1027.43
2017-01-25T13:52:21.291Z,1027.42
2017-01-25T13:53:31.228Z,1027.46
2017-01-25T13:54:41.957Z,1027.43
2017-01-25T13:55:52.299Z,1027.48
2017-01-25T13:57:02.610Z,1027.47
2017-01-25T13:58:13.641Z,1027.49
2017-01-25T13:59:24.357Z,1027.5
2017-01-25T14:00:34.284Z,1027.52
2017-01-25T14:01:44.595Z,1027.54
2017-01-25T14:02:55.307Z,1027.54
2017-01-25T14:04:06.325Z,1027.5
2017-01-25T14:05:16.640Z,1027.45
2017-01-25T14:06:26.960Z,1027.46
2017-01-25T14:07:36.512Z,1027.47
2017-01-25T14:08:46.825Z,1027.52
2017-01-25T14:09:57.443Z,1027.53
2017-01-25T14:11:07.773Z,1027.51
2017-01-25T14:12:18.086Z,1027.49
2017-01-25T14:13:28.420Z,1027.44
2017-01-25T14:14:38.743Z,1027.52